sensor_id;sensor_type;location;lat;lon;timestamp;P1;P2;P0
46240;PMS5003;31961;52.416;-0.732;2022-08-04T00:01:30;6;5;
46240;PMS5003;31961;52.416;-0.732;2022-08-04T00:04:07;8;7;
46240;PMS5003;31961;52.416;-0.732;2022-08-04T00:06:44;5;5;
46240;PMS5003;31961;52.416;-0.732;2022-08-04T00:09:21;7;6;
46240;PMS5003;31961;52.416;-0.732;2022-08-04T00:11:55;7;6;
46240;PMS5003;31961;52.416;-0.732;2022-08-04T00:14:26;7;7;
46240;PMS5003;31961;52.416;-0.732;2022-08-04T00:16:59;5;5;
46240;PMS5003;31961;52.416;-0.732;2022-08-04T00:19:31;10;8;
46240;PMS5003;31961;52.416;-0.732;2022-08-04T00:22:06;9;9;
46240;PMS5003;31961;52.416;-0.732;2022-08-04T00:24:36;10;8;
46240;PMS5003;31961;52.416;-0.732;2022-08-04T00:27:06;9;9;
46240;PMS5003;31961;52.416;-0.732;2022-08-04T00:29:34;10;9;
46240;PMS5003;31961;52.416;-0.732;2022-08-04T00:32:05;10;9;
46240;PMS5003;31961;52.416;-0.732;2022-08-04T00:34:33;12;10;
46240;PMS5003;31961;52.416;-0.732;2022-08-04T00:37:01;9;8;
46240;PMS5003;31961;52.416;-0.732;2022-08-04T00:39:29;10;7;
46240;PMS5003;31961;52.416;-0.732;2022-08-04T00:42:07;8;7;
46240;PMS5003;31961;52.416;-0.732;2022-08-04T00:44:49;10;9;
46240;PMS5003;31961;52.416;-0.732;2022-08-04T00:47:36;5;5;
46240;PMS5003;31961;52.416;-0.732;2022-08-04T00:50:16;9;9;
46240;PMS5003;31961;52.416;-0.732;2022-08-04T00:52:53;8;7;
46240;PMS5003;31961;52.416;-0.732;2022-08-04T00:55:35;11;10;
46240;PMS5003;31961;52.416;-0.732;2022-08-04T00:58:21;7;7;
46240;PMS5003;31961;52.416;-0.732;2022-08-04T01:00:57;9;8;
46240;PMS5003;31961;52.416;-0.732;2022-08-04T01:03:33;13;11;
46240;PMS5003;31961;52.416;-0.732;2022-08-04T01:06:17;9;8;
46240;PMS5003;31961;52.416;-0.732;2022-08-04T01:08:59;8;8;
46240;PMS5003;31961;52.416;-0.732;2022-08-04T01:11:40;11;11;
46240;PMS5003;31961;52.416;-0.732;2022-08-04T01:14:24;10;7;
46240;PMS5003;31961;52.416;-0.732;2022-08-04T01:17:11;9;9;
46240;PMS5003;31961;52.416;-0.732;2022-08-04T01:19:52;9;9;
46240;PMS5003;31961;52.416;-0.732;2022-08-04T01:22:36;9;9;
46240;PMS5003;31961;52.416;-0.732;2022-08-04T01:25:56;12;10;
46240;PMS5003;31961;52.416;-0.732;2022-08-04T01:31:32;10;9;
46240;PMS5003;31961;52.416;-0.732;2022-08-04T01:34:05;10;8;
46240;PMS5003;31961;52.416;-0.732;2022-08-04T01:36:39;9;9;
46240;PMS5003;31961;52.416;-0.732;2022-08-04T01:39:12;10;10;
46240;PMS5003;31961;52.416;-0.732;2022-08-04T01:41:40;12;11;
46240;PMS5003;31961;52.416;-0.732;2022-08-04T01:44:08;10;8;
46240;PMS5003;31961;52.416;-0.732;2022-08-04T01:46:37;9;8;
46240;PMS5003;31961;52.416;-0.732;2022-08-04T01:49:06;9;9;
46240;PMS5003;31961;52.416;-0.732;2022-08-04T01:51:36;7;7;
46240;PMS5003;31961;52.416;-0.732;2022-08-04T01:54:05;9;8;
46240;PMS5003;31961;52.416;-0.732;2022-08-04T01:56:34;10;10;
46240;PMS5003;31961;52.416;-0.732;2022-08-04T01:59:02;7;6;
46240;PMS5003;31961;52.416;-0.732;2022-08-04T02:01:31;9;9;
46240;PMS5003;31961;52.416;-0.732;2022-08-04T02:04:02;9;8;
46240;PMS5003;31961;52.416;-0.732;2022-08-04T02:06:30;10;8;
46240;PMS5003;31961;52.416;-0.732;2022-08-04T02:09:07;11;11;
46240;PMS5003;31961;52.416;-0.732;2022-08-04T02:11:43;11;8;
46240;PMS5003;31961;52.416;-0.732;2022-08-04T02:14:17;12;11;
46240;PMS5003;31961;52.416;-0.732;2022-08-04T02:16:51;12;11;
46240;PMS5003;31961;52.416;-0.732;2022-08-04T02:19:20;11;9;
46240;PMS5003;31961;52.416;-0.732;2022-08-04T02:21:56;12;12;
46240;PMS5003;31961;52.416;-0.732;2022-08-04T02:24:32;15;13;
46240;PMS5003;31961;52.416;-0.732;2022-08-04T02:27:08;14;14;
46240;PMS5003;31961;52.416;-0.732;2022-08-04T02:29:39;16;16;
46240;PMS5003;31961;52.416;-0.732;2022-08-04T02:32:14;14;13;
46240;PMS5003;31961;52.416;-0.732;2022-08-04T02:34:47;13;13;
46240;PMS5003;31961;52.416;-0.732;2022-08-04T02:37:23;13;12;
46240;PMS5003;31961;52.416;-0.732;2022-08-04T02:39:52;13;11;
46240;PMS5003;31961;52.416;-0.732;2022-08-04T02:42:20;16;15;
46240;PMS5003;31961;52.416;-0.732;2022-08-04T02:44:48;18;17;
46240;PMS5003;31961;52.416;-0.732;2022-08-04T02:47:16;18;18;
46240;PMS5003;31961;52.416;-0.732;2022-08-04T02:49:47;17;16;
46240;PMS5003;31961;52.416;-0.732;2022-08-04T02:52:17;16;15;
46240;PMS5003;31961;52.416;-0.732;2022-08-04T02:54:46;16;15;
46240;PMS5003;31961;52.416;-0.732;2022-08-04T02:57:17;14;13;
46240;PMS5003;31961;52.416;-0.732;2022-08-04T02:59:52;15;15;
46240;PMS5003;31961;52.416;-0.732;2022-08-04T03:02:31;13;13;
46240;PMS5003;31961;52.416;-0.732;2022-08-04T03:05:10;16;16;
46240;PMS5003;31961;52.416;-0.732;2022-08-04T03:07:49;11;11;
46240;PMS5003;31961;52.416;-0.732;2022-08-04T03:10:44;13;13;
46240;PMS5003;31961;52.416;-0.732;2022-08-04T03:13:30;14;12;
46240;PMS5003;31961;52.416;-0.732;2022-08-04T03:16:21;16;16;
46240;PMS5003;31961;52.416;-0.732;2022-08-04T03:23:29;13;12;
46240;PMS5003;31961;52.416;-0.732;2022-08-04T03:27:23;10;10;
46240;PMS5003;31961;52.416;-0.732;2022-08-04T03:30:06;12;11;
46240;PMS5003;31961;52.416;-0.732;2022-08-04T03:34:56;13;11;
46240;PMS5003;31961;52.416;-0.732;2022-08-04T03:37:57;9;9;
46240;PMS5003;31961;52.416;-0.732;2022-08-04T03:40:41;9;9;
46240;PMS5003;31961;52.416;-0.732;2022-08-04T03:43:48;10;9;
46240;PMS5003;31961;52.416;-0.732;2022-08-04T03:48:53;9;9;
46240;PMS5003;31961;52.416;-0.732;2022-08-04T03:51:37;22;21;
46240;PMS5003;31961;52.416;-0.732;2022-08-04T03:54:16;8;8;
46240;PMS5003;31961;52.416;-0.732;2022-08-04T03:57:02;7;5;
46240;PMS5003;31961;52.416;-0.732;2022-08-04T04:00:52;6;6;
46240;PMS5003;31961;52.416;-0.732;2022-08-04T04:03:39;12;12;
46240;PMS5003;31961;52.416;-0.732;2022-08-04T04:06:26;10;10;
46240;PMS5003;31961;52.416;-0.732;2022-08-04T04:09:19;19;18;
46240;PMS5003;31961;52.416;-0.732;2022-08-04T04:12:36;26;22;
46240;PMS5003;31961;52.416;-0.732;2022-08-04T04:15:19;26;22;
46240;PMS5003;31961;52.416;-0.732;2022-08-04T04:18:08;27;25;
46240;PMS5003;31961;52.416;-0.732;2022-08-04T04:20:48;26;24;
46240;PMS5003;31961;52.416;-0.732;2022-08-04T04:23:26;21;19;
46240;PMS5003;31961;52.416;-0.732;2022-08-04T04:26:06;24;20;
46240;PMS5003;31961;52.416;-0.732;2022-08-04T04:28:57;20;18;
46240;PMS5003;31961;52.416;-0.732;2022-08-04T04:31:44;25;24;
46240;PMS5003;31961;52.416;-0.732;2022-08-04T04:34:25;19;17;
46240;PMS5003;31961;52.416;-0.732;2022-08-04T04:37:08;15;15;
46240;PMS5003;31961;52.416;-0.732;2022-08-04T04:39:49;18;17;
46240;PMS5003;31961;52.416;-0.732;2022-08-04T04:42:34;20;17;
46240;PMS5003;31961;52.416;-0.732;2022-08-04T04:45:15;19;18;
46240;PMS5003;31961;52.416;-0.732;2022-08-04T04:47:52;19;16;
46240;PMS5003;31961;52.416;-0.732;2022-08-04T04:50:25;18;16;
46240;PMS5003;31961;52.416;-0.732;2022-08-04T04:53:03;20;20;
46240;PMS5003;31961;52.416;-0.732;2022-08-04T04:55:39;21;18;
46240;PMS5003;31961;52.416;-0.732;2022-08-04T04:58:10;21;19;
46240;PMS5003;31961;52.416;-0.732;2022-08-04T05:00:47;20;18;
46240;PMS5003;31961;52.416;-0.732;2022-08-04T05:03:31;18;15;
46240;PMS5003;31961;52.416;-0.732;2022-08-04T05:06:18;16;15;
46240;PMS5003;31961;52.416;-0.732;2022-08-04T05:09:02;16;16;
46240;PMS5003;31961;52.416;-0.732;2022-08-04T05:11:49;14;14;
46240;PMS5003;31961;52.416;-0.732;2022-08-04T05:14:24;15;14;
46240;PMS5003;31961;52.416;-0.732;2022-08-04T05:17:00;19;17;
46240;PMS5003;31961;52.416;-0.732;2022-08-04T05:19:33;16;13;
46240;PMS5003;31961;52.416;-0.732;2022-08-04T05:22:11;15;14;
46240;PMS5003;31961;52.416;-0.732;2022-08-04T05:24:45;13;12;
46240;PMS5003;31961;52.416;-0.732;2022-08-04T05:27:17;13;12;
46240;PMS5003;31961;52.416;-0.732;2022-08-04T05:29:49;11;10;
46240;PMS5003;31961;52.416;-0.732;2022-08-04T05:32:22;10;9;
46240;PMS5003;31961;52.416;-0.732;2022-08-04T05:34:54;10;8;
46240;PMS5003;31961;52.416;-0.732;2022-08-04T05:37:27;7;6;
46240;PMS5003;31961;52.416;-0.732;2022-08-04T05:39:59;7;6;
46240;PMS5003;31961;52.416;-0.732;2022-08-04T05:42:30;7;7;
46240;PMS5003;31961;52.416;-0.732;2022-08-04T05:44:58;7;7;
46240;PMS5003;31961;52.416;-0.732;2022-08-04T05:47:25;8;7;
46240;PMS5003;31961;52.416;-0.732;2022-08-04T05:49:54;3;3;
46240;PMS5003;31961;52.416;-0.732;2022-08-04T05:52:23;6;4;
46240;PMS5003;31961;52.416;-0.732;2022-08-04T05:54:52;14;13;
46240;PMS5003;31961;52.416;-0.732;2022-08-04T05:57:20;4;4;
46240;PMS5003;31961;52.416;-0.732;2022-08-04T05:59:49;7;6;
46240;PMS5003;31961;52.416;-0.732;2022-08-04T06:02:17;9;7;
46240;PMS5003;31961;52.416;-0.732;2022-08-04T06:04:47;7;6;
46240;PMS5003;31961;52.416;-0.732;2022-08-04T06:07:16;7;6;
46240;PMS5003;31961;52.416;-0.732;2022-08-04T06:09:43;7;6;
46240;PMS5003;31961;52.416;-0.732;2022-08-04T06:12:13;9;8;
46240;PMS5003;31961;52.416;-0.732;2022-08-04T06:14:45;11;10;
46240;PMS5003;31961;52.416;-0.732;2022-08-04T06:17:26;7;7;
46240;PMS5003;31961;52.416;-0.732;2022-08-04T06:19:58;8;7;
46240;PMS5003;31961;52.416;-0.732;2022-08-04T06:22:28;5;5;
46240;PMS5003;31961;52.416;-0.732;2022-08-04T06:24:58;7;4;
46240;PMS5003;31961;52.416;-0.732;2022-08-04T06:27:28;7;6;
46240;PMS5003;31961;52.416;-0.732;2022-08-04T06:29:56;7;6;
46240;PMS5003;31961;52.416;-0.732;2022-08-04T06:32:27;5;5;
46240;PMS5003;31961;52.416;-0.732;2022-08-04T06:34:56;4;4;
46240;PMS5003;31961;52.416;-0.732;2022-08-04T06:37:25;7;7;
46240;PMS5003;31961;52.416;-0.732;2022-08-04T06:39:53;4;3;
46240;PMS5003;31961;52.416;-0.732;2022-08-04T06:42:22;6;4;
46240;PMS5003;31961;52.416;-0.732;2022-08-04T06:44:52;5;4;
46240;PMS5003;31961;52.416;-0.732;2022-08-04T06:47:22;4;4;
46240;PMS5003;31961;52.416;-0.732;2022-08-04T06:49:52;4;4;
46240;PMS5003;31961;52.416;-0.732;2022-08-04T06:52:20;6;5;
46240;PMS5003;31961;52.416;-0.732;2022-08-04T06:54:49;6;4;
46240;PMS5003;31961;52.416;-0.732;2022-08-04T06:57:18;8;7;
46240;PMS5003;31961;52.416;-0.732;2022-08-04T06:59:49;6;6;
46240;PMS5003;31961;52.416;-0.732;2022-08-04T07:02:23;4;4;
46240;PMS5003;31961;52.416;-0.732;2022-08-04T07:04:53;5;5;
46240;PMS5003;31961;52.416;-0.732;2022-08-04T07:07:21;4;4;
46240;PMS5003;31961;52.416;-0.732;2022-08-04T07:09:50;5;5;
46240;PMS5003;31961;52.416;-0.732;2022-08-04T07:12:17;6;5;
46240;PMS5003;31961;52.416;-0.732;2022-08-04T07:14:47;6;4;
46240;PMS5003;31961;52.416;-0.732;2022-08-04T07:17:16;6;5;
46240;PMS5003;31961;52.416;-0.732;2022-08-04T07:19:46;7;7;
46240;PMS5003;31961;52.416;-0.732;2022-08-04T07:22:13;5;4;
46240;PMS5003;31961;52.416;-0.732;2022-08-04T07:24:41;7;7;
46240;PMS5003;31961;52.416;-0.732;2022-08-04T07:27:09;5;5;
46240;PMS5003;31961;52.416;-0.732;2022-08-04T07:29:36;6;5;
46240;PMS5003;31961;52.416;-0.732;2022-08-04T07:32:06;4;3;
46240;PMS5003;31961;52.416;-0.732;2022-08-04T07:34:34;7;5;
46240;PMS5003;31961;52.416;-0.732;2022-08-04T07:37:03;5;5;
46240;PMS5003;31961;52.416;-0.732;2022-08-04T07:39:31;6;5;
46240;PMS5003;31961;52.416;-0.732;2022-08-04T07:41:59;5;5;
46240;PMS5003;31961;52.416;-0.732;2022-08-04T07:44:28;8;6;
46240;PMS5003;31961;52.416;-0.732;2022-08-04T07:46:56;9;6;
46240;PMS5003;31961;52.416;-0.732;2022-08-04T07:49:23;8;7;
46240;PMS5003;31961;52.416;-0.732;2022-08-04T07:51:51;6;5;
46240;PMS5003;31961;52.416;-0.732;2022-08-04T07:54:19;8;8;
46240;PMS5003;31961;52.416;-0.732;2022-08-04T07:56:47;8;8;
46240;PMS5003;31961;52.416;-0.732;2022-08-04T07:59:15;11;10;
46240;PMS5003;31961;52.416;-0.732;2022-08-04T08:01:42;10;9;
46240;PMS5003;31961;52.416;-0.732;2022-08-04T08:04:11;8;7;
46240;PMS5003;31961;52.416;-0.732;2022-08-04T08:06:40;7;7;
46240;PMS5003;31961;52.416;-0.732;2022-08-04T08:09:09;9;8;
46240;PMS5003;31961;52.416;-0.732;2022-08-04T08:11:37;7;6;
46240;PMS5003;31961;52.416;-0.732;2022-08-04T08:14:04;13;10;
46240;PMS5003;31961;52.416;-0.732;2022-08-04T08:16:32;8;7;
46240;PMS5003;31961;52.416;-0.732;2022-08-04T08:18:59;10;8;
46240;PMS5003;31961;52.416;-0.732;2022-08-04T08:21:27;8;8;
46240;PMS5003;31961;52.416;-0.732;2022-08-04T08:23:55;10;7;
46240;PMS5003;31961;52.416;-0.732;2022-08-04T08:26:23;8;8;
46240;PMS5003;31961;52.416;-0.732;2022-08-04T08:28:50;7;7;
46240;PMS5003;31961;52.416;-0.732;2022-08-04T08:31:18;6;6;
46240;PMS5003;31961;52.416;-0.732;2022-08-04T08:33:45;5;4;
46240;PMS5003;31961;52.416;-0.732;2022-08-04T08:36:16;7;7;
46240;PMS5003;31961;52.416;-0.732;2022-08-04T08:38:48;6;6;
46240;PMS5003;31961;52.416;-0.732;2022-08-04T08:42:46;5;5;
46240;PMS5003;31961;52.416;-0.732;2022-08-04T08:45:46;6;6;
46240;PMS5003;31961;52.416;-0.732;2022-08-04T08:49:35;4;4;
46240;PMS5003;31961;52.416;-0.732;2022-08-04T08:52:20;8;6;
46240;PMS5003;31961;52.416;-0.732;2022-08-04T08:55:06;9;7;
46240;PMS5003;31961;52.416;-0.732;2022-08-04T08:57:48;6;6;
46240;PMS5003;31961;52.416;-0.732;2022-08-04T09:00:27;10;8;
46240;PMS5003;31961;52.416;-0.732;2022-08-04T09:03:10;9;8;
46240;PMS5003;31961;52.416;-0.732;2022-08-04T09:06:11;9;9;
46240;PMS5003;31961;52.416;-0.732;2022-08-04T09:08:58;9;9;
46240;PMS5003;31961;52.416;-0.732;2022-08-04T09:11:39;13;13;
46240;PMS5003;31961;52.416;-0.732;2022-08-04T09:14:15;9;9;
46240;PMS5003;31961;52.416;-0.732;2022-08-04T09:16:46;13;11;
46240;PMS5003;31961;52.416;-0.732;2022-08-04T09:19:18;11;11;
46240;PMS5003;31961;52.416;-0.732;2022-08-04T09:21:50;12;11;
46240;PMS5003;31961;52.416;-0.732;2022-08-04T09:24:25;12;12;
46240;PMS5003;31961;52.416;-0.732;2022-08-04T09:26:57;5;5;
46240;PMS5003;31961;52.416;-0.732;2022-08-04T09:29:32;7;6;
46240;PMS5003;31961;52.416;-0.732;2022-08-04T09:32:07;10;8;
46240;PMS5003;31961;52.416;-0.732;2022-08-04T09:34:44;5;5;
46240;PMS5003;31961;52.416;-0.732;2022-08-04T09:37:23;9;7;
46240;PMS5003;31961;52.416;-0.732;2022-08-04T09:40:00;9;9;
46240;PMS5003;31961;52.416;-0.732;2022-08-04T09:42:35;4;4;
46240;PMS5003;31961;52.416;-0.732;2022-08-04T09:45:09;5;5;
46240;PMS5003;31961;52.416;-0.732;2022-08-04T09:47:45;6;6;
46240;PMS5003;31961;52.416;-0.732;2022-08-04T09:50:21;5;5;
46240;PMS5003;31961;52.416;-0.732;2022-08-04T09:53:02;4;4;
46240;PMS5003;31961;52.416;-0.732;2022-08-04T09:55:41;3;3;
46240;PMS5003;31961;52.416;-0.732;2022-08-04T09:58:26;5;4;
46240;PMS5003;31961;52.416;-0.732;2022-08-04T10:01:06;3;3;
46240;PMS5003;31961;52.416;-0.732;2022-08-04T10:03:37;3;3;
46240;PMS5003;31961;52.416;-0.732;2022-08-04T10:06:09;3;2;
46240;PMS5003;31961;52.416;-0.732;2022-08-04T10:08:55;4;4;
46240;PMS5003;31961;52.416;-0.732;2022-08-04T10:11:38;3;1;
46240;PMS5003;31961;52.416;-0.732;2022-08-04T10:14:19;4;3;
46240;PMS5003;31961;52.416;-0.732;2022-08-04T10:17:06;3;3;
46240;PMS5003;31961;52.416;-0.732;2022-08-04T10:19:49;1;1;
46240;PMS5003;31961;52.416;-0.732;2022-08-04T10:22:30;3;3;
46240;PMS5003;31961;52.416;-0.732;2022-08-04T10:25:06;3;3;
46240;PMS5003;31961;52.416;-0.732;2022-08-04T10:27:49;6;3;
46240;PMS5003;31961;52.416;-0.732;2022-08-04T10:30:19;3;3;
46240;PMS5003;31961;52.416;-0.732;2022-08-04T10:32:49;3;2;
46240;PMS5003;31961;52.416;-0.732;2022-08-04T10:35:21;3;3;
46240;PMS5003;31961;52.416;-0.732;2022-08-04T10:37:53;2;1;
46240;PMS5003;31961;52.416;-0.732;2022-08-04T10:40:30;2;2;
46240;PMS5003;31961;52.416;-0.732;2022-08-04T10:43:04;0;0;
46240;PMS5003;31961;52.416;-0.732;2022-08-04T10:45:38;2;2;
46240;PMS5003;31961;52.416;-0.732;2022-08-04T10:48:12;3;3;
46240;PMS5003;31961;52.416;-0.732;2022-08-04T10:50:49;3;3;
46240;PMS5003;31961;52.416;-0.732;2022-08-04T10:53:28;2;1;
46240;PMS5003;31961;52.416;-0.732;2022-08-04T10:55:58;3;3;
46240;PMS5003;31961;52.416;-0.732;2022-08-04T10:58:32;2;2;
46240;PMS5003;31961;52.416;-0.732;2022-08-04T11:01:09;1;1;
46240;PMS5003;31961;52.416;-0.732;2022-08-04T11:03:46;1;1;
46240;PMS5003;31961;52.416;-0.732;2022-08-04T11:06:22;2;2;
46240;PMS5003;31961;52.416;-0.732;2022-08-04T11:08:52;1;1;
46240;PMS5003;31961;52.416;-0.732;2022-08-04T11:11:23;2;2;
46240;PMS5003;31961;52.416;-0.732;2022-08-04T11:13:58;0;0;
46240;PMS5003;31961;52.416;-0.732;2022-08-04T11:16:35;2;1;
46240;PMS5003;31961;52.416;-0.732;2022-08-04T11:19:12;2;2;
46240;PMS5003;31961;52.416;-0.732;2022-08-04T11:21:52;2;2;
46240;PMS5003;31961;52.416;-0.732;2022-08-04T11:24:23;2;2;
46240;PMS5003;31961;52.416;-0.732;2022-08-04T11:27:02;1;1;
46240;PMS5003;31961;52.416;-0.732;2022-08-04T11:29:37;2;2;
46240;PMS5003;31961;52.416;-0.732;2022-08-04T11:32:12;0;0;
46240;PMS5003;31961;52.416;-0.732;2022-08-04T11:34:46;2;2;
46240;PMS5003;31961;52.416;-0.732;2022-08-04T11:37:19;1;1;
46240;PMS5003;31961;52.416;-0.732;2022-08-04T11:39:52;1;1;
46240;PMS5003;31961;52.416;-0.732;2022-08-04T11:42:26;2;2;
46240;PMS5003;31961;52.416;-0.732;2022-08-04T11:44:58;0;0;
46240;PMS5003;31961;52.416;-0.732;2022-08-04T11:47:28;1;1;
46240;PMS5003;31961;52.416;-0.732;2022-08-04T11:50:01;1;1;
46240;PMS5003;31961;52.416;-0.732;2022-08-04T11:52:31;1;1;
46240;PMS5003;31961;52.416;-0.732;2022-08-04T11:55:02;1;1;
46240;PMS5003;31961;52.416;-0.732;2022-08-04T11:57:31;0;0;
46240;PMS5003;31961;52.416;-0.732;2022-08-04T12:00:00;2;2;
46240;PMS5003;31961;52.416;-0.732;2022-08-04T12:03:36;1;1;
46240;PMS5003;31961;52.416;-0.732;2022-08-04T12:06:13;0;0;
46240;PMS5003;31961;52.416;-0.732;2022-08-04T12:08:53;1;1;
46240;PMS5003;31961;52.416;-0.732;2022-08-04T12:11:33;0;0;
46240;PMS5003;31961;52.416;-0.732;2022-08-04T12:14:17;0;0;
46240;PMS5003;31961;52.416;-0.732;2022-08-04T12:16:55;1;1;
46240;PMS5003;31961;52.416;-0.732;2022-08-04T12:19:28;1;1;
46240;PMS5003;31961;52.416;-0.732;2022-08-04T12:22:02;2;1;
46240;PMS5003;31961;52.416;-0.732;2022-08-04T12:24:35;1;1;
46240;PMS5003;31961;52.416;-0.732;2022-08-04T12:27:10;1;1;
46240;PMS5003;31961;52.416;-0.732;2022-08-04T12:29:41;0;0;
46240;PMS5003;31961;52.416;-0.732;2022-08-04T12:32:16;1;1;
46240;PMS5003;31961;52.416;-0.732;2022-08-04T12:34:49;1;1;
46240;PMS5003;31961;52.416;-0.732;2022-08-04T12:37:30;2;2;
46240;PMS5003;31961;52.416;-0.732;2022-08-04T12:40:07;1;1;
46240;PMS5003;31961;52.416;-0.732;2022-08-04T12:42:41;2;1;
46240;PMS5003;31961;52.416;-0.732;2022-08-04T12:45:17;1;1;
46240;PMS5003;31961;52.416;-0.732;2022-08-04T12:47:47;1;1;
46240;PMS5003;31961;52.416;-0.732;2022-08-04T12:50:18;1;1;
46240;PMS5003;31961;52.416;-0.732;2022-08-04T12:52:49;1;1;
46240;PMS5003;31961;52.416;-0.732;2022-08-04T12:55:21;0;0;
46240;PMS5003;31961;52.416;-0.732;2022-08-04T12:57:50;2;2;
46240;PMS5003;31961;52.416;-0.732;2022-08-04T13:00:23;2;1;
46240;PMS5003;31961;52.416;-0.732;2022-08-04T13:02:52;1;1;
46240;PMS5003;31961;52.416;-0.732;2022-08-04T13:05:23;1;1;
46240;PMS5003;31961;52.416;-0.732;2022-08-04T13:07:53;1;1;
46240;PMS5003;31961;52.416;-0.732;2022-08-04T13:10:21;0;0;
46240;PMS5003;31961;52.416;-0.732;2022-08-04T13:12:51;1;1;
46240;PMS5003;31961;52.416;-0.732;2022-08-04T13:15:22;1;1;
46240;PMS5003;31961;52.416;-0.732;2022-08-04T13:17:52;0;0;
46240;PMS5003;31961;52.416;-0.732;2022-08-04T13:20:23;0;0;
46240;PMS5003;31961;52.416;-0.732;2022-08-04T13:23:10;0;0;
46240;PMS5003;31961;52.416;-0.732;2022-08-04T13:25:41;1;1;
46240;PMS5003;31961;52.416;-0.732;2022-08-04T13:28:12;1;1;
46240;PMS5003;31961;52.416;-0.732;2022-08-04T13:30:43;2;2;
46240;PMS5003;31961;52.416;-0.732;2022-08-04T13:33:11;2;2;
46240;PMS5003;31961;52.416;-0.732;2022-08-04T13:35:41;1;1;
46240;PMS5003;31961;52.416;-0.732;2022-08-04T13:38:10;2;2;
46240;PMS5003;31961;52.416;-0.732;2022-08-04T13:40:38;2;1;
46240;PMS5003;31961;52.416;-0.732;2022-08-04T13:43:09;0;0;
46240;PMS5003;31961;52.416;-0.732;2022-08-04T13:45:48;1;1;
46240;PMS5003;31961;52.416;-0.732;2022-08-04T13:48:16;1;1;
46240;PMS5003;31961;52.416;-0.732;2022-08-04T13:50:45;0;0;
46240;PMS5003;31961;52.416;-0.732;2022-08-04T13:53:15;1;1;
46240;PMS5003;31961;52.416;-0.732;2022-08-04T13:55:43;2;1;
46240;PMS5003;31961;52.416;-0.732;2022-08-04T13:58:13;1;1;
46240;PMS5003;31961;52.416;-0.732;2022-08-04T14:00:48;1;1;
46240;PMS5003;31961;52.416;-0.732;2022-08-04T14:03:21;1;1;
46240;PMS5003;31961;52.416;-0.732;2022-08-04T14:06:10;0;0;
46240;PMS5003;31961;52.416;-0.732;2022-08-04T14:08:49;0;0;
46240;PMS5003;31961;52.416;-0.732;2022-08-04T14:11:20;1;1;
46240;PMS5003;31961;52.416;-0.732;2022-08-04T14:13:56;1;1;
46240;PMS5003;31961;52.416;-0.732;2022-08-04T14:16:23;4;2;
46240;PMS5003;31961;52.416;-0.732;2022-08-04T14:18:57;0;0;
46240;PMS5003;31961;52.416;-0.732;2022-08-04T14:21:25;1;1;
46240;PMS5003;31961;52.416;-0.732;2022-08-04T14:23:53;1;0;
46240;PMS5003;31961;52.416;-0.732;2022-08-04T14:26:24;1;0;
46240;PMS5003;31961;52.416;-0.732;2022-08-04T14:28:53;0;0;
46240;PMS5003;31961;52.416;-0.732;2022-08-04T14:31:21;2;1;
46240;PMS5003;31961;52.416;-0.732;2022-08-04T14:33:51;1;1;
46240;PMS5003;31961;52.416;-0.732;2022-08-04T14:36:19;0;0;
46240;PMS5003;31961;52.416;-0.732;2022-08-04T14:38:50;1;1;
46240;PMS5003;31961;52.416;-0.732;2022-08-04T14:41:20;1;1;
46240;PMS5003;31961;52.416;-0.732;2022-08-04T14:43:51;0;0;
46240;PMS5003;31961;52.416;-0.732;2022-08-04T14:46:20;1;1;
46240;PMS5003;31961;52.416;-0.732;2022-08-04T14:49:05;1;1;
46240;PMS5003;31961;52.416;-0.732;2022-08-04T14:51:36;1;0;
46240;PMS5003;31961;52.416;-0.732;2022-08-04T14:54:06;1;0;
46240;PMS5003;31961;52.416;-0.732;2022-08-04T14:56:35;0;0;
46240;PMS5003;31961;52.416;-0.732;2022-08-04T14:59:06;1;1;
46240;PMS5003;31961;52.416;-0.732;2022-08-04T15:01:36;0;0;
46240;PMS5003;31961;52.416;-0.732;2022-08-04T15:04:05;1;1;
46240;PMS5003;31961;52.416;-0.732;2022-08-04T15:06:33;0;0;
46240;PMS5003;31961;52.416;-0.732;2022-08-04T15:09:02;0;0;
46240;PMS5003;31961;52.416;-0.732;2022-08-04T15:11:31;1;1;
46240;PMS5003;31961;52.416;-0.732;2022-08-04T15:13:59;2;2;
46240;PMS5003;31961;52.416;-0.732;2022-08-04T15:16:27;2;1;
46240;PMS5003;31961;52.416;-0.732;2022-08-04T15:18:56;1;1;
46240;PMS5003;31961;52.416;-0.732;2022-08-04T15:21:24;2;2;
46240;PMS5003;31961;52.416;-0.732;2022-08-04T15:23:53;2;2;
46240;PMS5003;31961;52.416;-0.732;2022-08-04T15:26:24;2;2;
46240;PMS5003;31961;52.416;-0.732;2022-08-04T15:28:57;3;3;
46240;PMS5003;31961;52.416;-0.732;2022-08-04T15:31:27;3;3;
46240;PMS5003;31961;52.416;-0.732;2022-08-04T15:33:57;2;2;
46240;PMS5003;31961;52.416;-0.732;2022-08-04T15:36:29;3;3;
46240;PMS5003;31961;52.416;-0.732;2022-08-04T15:39:04;2;2;
46240;PMS5003;31961;52.416;-0.732;2022-08-04T15:41:41;1;1;
46240;PMS5003;31961;52.416;-0.732;2022-08-04T15:44:31;3;3;
46240;PMS5003;31961;52.416;-0.732;2022-08-04T15:47:23;3;3;
46240;PMS5003;31961;52.416;-0.732;2022-08-04T15:50:02;3;3;
46240;PMS5003;31961;52.416;-0.732;2022-08-04T15:52:58;4;2;
46240;PMS5003;31961;52.416;-0.732;2022-08-04T15:55:35;4;3;
46240;PMS5003;31961;52.416;-0.732;2022-08-04T15:58:04;3;2;
46240;PMS5003;31961;52.416;-0.732;2022-08-04T16:01:39;4;3;
46240;PMS5003;31961;52.416;-0.732;2022-08-04T16:04:23;1;1;
46240;PMS5003;31961;52.416;-0.732;2022-08-04T16:06:51;2;0;
46240;PMS5003;31961;52.416;-0.732;2022-08-04T16:09:30;2;1;
46240;PMS5003;31961;52.416;-0.732;2022-08-04T16:11:57;1;1;
46240;PMS5003;31961;52.416;-0.732;2022-08-04T16:14:29;1;1;
46240;PMS5003;31961;52.416;-0.732;2022-08-04T16:17:13;2;2;
46240;PMS5003;31961;52.416;-0.732;2022-08-04T16:19:49;2;2;
46240;PMS5003;31961;52.416;-0.732;2022-08-04T16:22:30;1;1;
46240;PMS5003;31961;52.416;-0.732;2022-08-04T16:25:00;1;1;
46240;PMS5003;31961;52.416;-0.732;2022-08-04T16:27:36;2;2;
46240;PMS5003;31961;52.416;-0.732;2022-08-04T16:30:05;1;1;
46240;PMS5003;31961;52.416;-0.732;2022-08-04T16:32:39;2;2;
46240;PMS5003;31961;52.416;-0.732;2022-08-04T16:35:19;1;1;
46240;PMS5003;31961;52.416;-0.732;2022-08-04T16:37:48;2;2;
46240;PMS5003;31961;52.416;-0.732;2022-08-04T16:40:24;2;1;
46240;PMS5003;31961;52.416;-0.732;2022-08-04T16:42:56;1;1;
46240;PMS5003;31961;52.416;-0.732;2022-08-04T16:45:38;2;2;
46240;PMS5003;31961;52.416;-0.732;2022-08-04T16:48:08;2;2;
46240;PMS5003;31961;52.416;-0.732;2022-08-04T16:50:53;1;1;
46240;PMS5003;31961;52.416;-0.732;2022-08-04T16:53:24;1;1;
46240;PMS5003;31961;52.416;-0.732;2022-08-04T16:55:53;3;2;
46240;PMS5003;31961;52.416;-0.732;2022-08-04T16:58:24;2;2;
46240;PMS5003;31961;52.416;-0.732;2022-08-04T17:00:54;0;0;
46240;PMS5003;31961;52.416;-0.732;2022-08-04T17:03:23;2;1;
46240;PMS5003;31961;52.416;-0.732;2022-08-04T17:06:08;1;1;
46240;PMS5003;31961;52.416;-0.732;2022-08-04T17:08:36;1;1;
46240;PMS5003;31961;52.416;-0.732;2022-08-04T17:11:04;1;1;
46240;PMS5003;31961;52.416;-0.732;2022-08-04T17:13:33;2;1;
46240;PMS5003;31961;52.416;-0.732;2022-08-04T17:16:03;1;1;
46240;PMS5003;31961;52.416;-0.732;2022-08-04T17:18:32;1;0;
46240;PMS5003;31961;52.416;-0.732;2022-08-04T17:21:03;1;1;
46240;PMS5003;31961;52.416;-0.732;2022-08-04T17:23:33;2;2;
46240;PMS5003;31961;52.416;-0.732;2022-08-04T17:26:04;1;1;
46240;PMS5003;31961;52.416;-0.732;2022-08-04T17:28:34;1;1;
46240;PMS5003;31961;52.416;-0.732;2022-08-04T17:31:03;0;0;
46240;PMS5003;31961;52.416;-0.732;2022-08-04T17:33:32;1;0;